Quad City International Airport
KMLI : now visible

Airfield :











YOU CAN JOIN US ON...

 
LOGIN :

Register | Disclaimer

   EN    FR    IT 

 









Legend :    VFR   Marginal VFR   IFR   Intensive IFR   Very Intensive IFR
Visi :
Ceiling :
>= 8 km
>= 3000ft
5 to 8 km
1000 to 3000 ft
1500m to 5 km
500 to 1000 ft
800 to 1500m
200 to 500 ft
< 800m
< 200 ft
Symbols :   Thunderstorms  Fog  Heavy snow  Heavy precipitations  Wind > 20 kt






- Airport Elevation : 590 ft
- IATA code : MLI


KMLI - Quad City International

CURRENT METAR :
  • 091352Z 16006KT 10SM CLR 28/23 A2985 RMK AO2 SLP102 T02780228

EXPIRED METARs :
  • 091252Z 12003KT 8SM CLR 26/22 A2985 RMK AO2 SLP104 T02610222
  • 091152Z 00000KT 7SM FEW055 24/22 A2986 RMK AO2 SLP105 T02390217 10250 20222 58005

TAF KMLI
Valid from the 09 at 12:00 until the 10 at 12:00 UTC


091120Z 0912/1012 12005KT P6SM SCT120
FM091400 18006KT P6SM SCT050 SCT100
FM091800 21010KT P6SM SCT040 OVC100
TEMPO 0921/1001 2SM TSRA BR OVC030CB
FM100100 25007KT 5SM -TSRA BR OVC040CB
FM100400 VRB03KT 6SM BR BKN100
KZAU FIR / North America



MET'MAP, your aeronautical weather chart ! - Copyright ORBIFLY December 2007 - Disclaimer

ORBIFLY MET'MAP TEAM :

Programming & Development : Alexandra Zaïnal
Concept & original design : Baudouin d'Aumeries
Assistance for programming : Marc-Olivier Méhu
Technical & hardware support : Manuel Goepfert

Contact : metmap@orbifly.com




SOURCES & CREDITS :

   NOAA       Earth
Advisory